Time;durP1;ratioP1;P1;durP2;ratioP2;P2;SDS_P1;SDS_P2;PMS_P1;PMS_P2;Temp;Humidity;BMP_temperature;BMP_pressure;BME280_temperature;BME280_humidity;BME280_pressure;Samples;Min_cycle;Max_cycle;Signal;HPM_P1;HPM_P2
2022/11/22 00:01:09;;;;;;;33.08;17.98;;;3.00;99.90;;;;;;4896028;29;20106;-62
2022/11/22 00:03:35;;;;;;;32.92;19.30;;;3.10;99.90;;;;;;4903863;29;20050;-62
2022/11/22 00:06:01;;;;;;;34.20;18.67;;;3.00;99.90;;;;;;4906818;29;20518;-62
2022/11/22 00:08:27;;;;;;;34.28;19.33;;;3.00;99.90;;;;;;4888443;29;20048;-62
2022/11/22 00:10:53;;;;;;;35.80;19.48;;;3.00;99.90;;;;;;4873265;29;20397;-61
2022/11/22 00:13:20;;;;;;;32.22;18.52;;;3.10;99.90;;;;;;4873500;29;20048;-62
2022/11/22 00:16:00;;;;;;;32.38;17.42;;;3.00;99.90;;;;;;4901494;29;20468;-62
2022/11/22 00:18:27;;;;;;;33.33;18.90;;;3.00;99.90;;;;;;4888320;29;20067;-62
2022/11/22 00:20:52;;;;;;;32.83;19.00;;;3.00;99.90;;;;;;4871517;29;20048;-62
2022/11/22 00:23:18;;;;;;;33.97;19.55;;;3.00;99.90;;;;;;4886216;29;20071;-62
2022/11/22 00:25:45;;;;;;;31.65;18.55;;;3.00;99.90;;;;;;4890773;29;20055;-62
2022/11/22 00:28:10;;;;;;;33.78;18.65;;;3.00;99.90;;;;;;4885499;29;20066;-62
2022/11/22 00:30:36;;;;;;;35.67;19.58;;;3.00;99.90;;;;;;4887487;29;20040;-61
2022/11/22 00:33:02;;;;;;;32.95;19.27;;;3.00;99.90;;;;;;4903713;29;20483;-62
2022/11/22 00:35:28;;;;;;;34.00;19.70;;;3.00;99.90;;;;;;4900565;29;20044;-62
2022/11/22 00:37:54;;;;;;;34.17;19.25;;;3.00;99.90;;;;;;4903082;29;20132;-62
2022/11/22 00:40:20;;;;;;;34.40;18.95;;;3.00;99.90;;;;;;4901952;29;20047;-62
2022/11/22 00:42:45;;;;;;;34.28;19.67;;;2.90;99.90;;;;;;4905811;29;20127;-62
2022/11/22 00:45:11;;;;;;;31.73;19.02;;;2.90;99.90;;;;;;4897446;29;20055;-62
2022/11/22 00:47:37;;;;;;;34.47;19.83;;;2.90;99.90;;;;;;4910545;29;20930;-62
2022/11/22 00:50:04;;;;;;;32.38;18.65;;;2.90;99.90;;;;;;4906679;29;20044;-62
2022/11/22 00:52:30;;;;;;;32.20;18.83;;;2.90;99.90;;;;;;4907337;29;20125;-62
2022/11/22 00:54:55;;;;;;;32.95;18.25;;;2.90;99.90;;;;;;4890743;29;20056;-62
2022/11/22 00:57:21;;;;;;;36.15;19.33;;;2.90;99.90;;;;;;4890238;29;20055;-61
2022/11/22 00:59:47;;;;;;;33.60;19.00;;;2.90;99.90;;;;;;4897068;29;20063;-62
2022/11/22 01:02:13;;;;;;;31.63;18.92;;;2.80;99.90;;;;;;4904663;29;22107;-62
2022/11/22 01:04:39;;;;;;;31.65;18.13;;;2.80;99.90;;;;;;4905858;29;20368;-62
2022/11/22 01:07:05;;;;;;;35.10;20.42;;;2.80;99.90;;;;;;4889742;29;20136;-62
2022/11/22 01:09:31;;;;;;;33.42;19.63;;;2.80;99.90;;;;;;4907207;29;20283;-62
2022/11/22 01:11:56;;;;;;;33.35;19.23;;;2.80;99.90;;;;;;4884927;29;20054;-62
2022/11/22 01:14:22;;;;;;;37.50;20.15;;;2.80;99.90;;;;;;4886751;29;20048;-62
2022/11/22 01:16:48;;;;;;;32.47;19.13;;;2.80;99.90;;;;;;4893106;29;20060;-62
2022/11/22 01:19:14;;;;;;;34.03;19.55;;;2.80;99.90;;;;;;4902188;29;20126;-62
2022/11/22 01:21:40;;;;;;;33.90;19.52;;;2.80;99.90;;;;;;4900523;29;20408;-62
2022/11/22 01:24:07;;;;;;;35.40;19.40;;;2.80;99.90;;;;;;4889575;29;20054;-62
2022/11/22 01:26:33;;;;;;;36.80;20.92;;;2.70;99.90;;;;;;4906876;29;20160;-62
2022/11/22 01:28:58;;;;;;;35.20;20.13;;;2.70;99.90;;;;;;4894491;29;20089;-62
2022/11/22 01:31:24;;;;;;;35.00;20.10;;;2.70;99.90;;;;;;4892995;29;20044;-62
2022/11/22 01:33:50;;;;;;;36.15;19.33;;;2.70;99.90;;;;;;4892493;29;20186;-61
2022/11/22 01:36:16;;;;;;;40.03;21.15;;;2.80;99.90;;;;;;4884949;29;20407;-62
2022/11/22 01:38:42;;;;;;;37.42;20.35;;;2.70;99.90;;;;;;4901660;29;20048;-62
2022/11/22 01:41:07;;;;;;;38.85;20.88;;;2.70;99.90;;;;;;4904043;29;20379;-62
2022/11/22 01:43:33;;;;;;;39.45;20.58;;;2.70;99.90;;;;;;4905484;29;20136;-62
2022/11/22 01:46:09;;;;;;;44.53;22.08;;;2.70;99.90;;;;;;4905547;29;20051;-62
2022/11/22 01:48:46;;;;;;;39.28;21.23;;;2.70;99.90;;;;;;4873921;29;20047;-63
2022/11/22 01:51:37;;;;;;;39.15;21.88;;;2.70;99.90;;;;;;4889880;29;20098;-62
2022/11/22 01:54:08;;;;;;;40.30;21.42;;;2.70;99.90;;;;;;4877720;29;20056;-62
2022/11/22 01:56:37;;;;;;;39.15;20.80;;;2.80;99.90;;;;;;4881945;29;20240;-62
2022/11/22 01:59:07;;;;;;;42.45;21.38;;;2.70;99.90;;;;;;4900550;29;20041;-62
2022/11/22 02:01:33;;;;;;;41.55;22.30;;;2.80;99.90;;;;;;4902509;29;20542;-63
2022/11/22 02:04:01;;;;;;;37.25;21.35;;;2.80;99.90;;;;;;4870844;29;20048;-63
2022/11/22 02:06:46;;;;;;;42.72;22.83;;;2.80;99.90;;;;;;4887174;29;20071;-62
2022/11/22 02:09:13;;;;;;;42.13;21.60;;;2.80;99.90;;;;;;4895208;29;20047;-63
2022/11/22 02:11:46;;;;;;;44.90;23.23;;;2.80;99.90;;;;;;4906341;29;20562;-62
2022/11/22 02:14:13;;;;;;;44.13;23.05;;;2.80;99.90;;;;;;4888856;29;20044;-62
2022/11/22 02:16:41;;;;;;;42.72;22.15;;;2.80;99.90;;;;;;4888433;29;20040;-62
2022/11/22 02:19:15;;;;;;;42.50;22.58;;;2.80;99.90;;;;;;4908378;29;20110;-62
2022/11/22 02:21:42;;;;;;;39.67;22.08;;;2.80;99.90;;;;;;4897593;29;20584;-62
2022/11/22 02:24:21;;;;;;;42.53;22.35;;;2.80;99.90;;;;;;4906822;29;20374;-62
2022/11/22 02:26:47;;;;;;;43.95;22.67;;;2.80;99.90;;;;;;4892838;29;20155;-63
2022/11/22 02:29:13;;;;;;;42.70;23.13;;;2.90;99.90;;;;;;4896519;29;20138;-62
2022/11/22 02:31:42;;;;;;;45.17;23.08;;;2.90;99.90;;;;;;4878751;29;20052;-62
2022/11/22 02:34:09;;;;;;;42.95;23.15;;;2.90;99.90;;;;;;4890668;29;20095;-62
2022/11/22 02:36:40;;;;;;;45.70;23.70;;;2.90;99.90;;;;;;4908808;29;20527;-62
2022/11/22 02:39:07;;;;;;;46.55;22.90;;;2.90;99.90;;;;;;4894455;29;20066;-62
2022/11/22 02:41:34;;;;;;;41.90;23.83;;;2.90;99.90;;;;;;4910838;29;20055;-62
2022/11/22 02:44:00;;;;;;;44.28;23.33;;;2.90;99.90;;;;;;4880780;29;20051;-63
2022/11/22 02:46:25;;;;;;;41.85;23.55;;;2.90;99.90;;;;;;4875917;29;20054;-62
2022/11/22 02:48:51;;;;;;;44.92;24.00;;;2.90;99.90;;;;;;4874088;29;20515;-63
2022/11/22 02:51:18;;;;;;;40.25;23.23;;;2.90;99.90;;;;;;4897127;29;20059;-62
2022/11/22 02:53:49;;;;;;;43.25;24.73;;;2.90;99.90;;;;;;4895020;29;20355;-63
2022/11/22 02:56:15;;;;;;;45.30;24.27;;;2.90;99.90;;;;;;4904768;29;20095;-62
2022/11/22 02:58:42;;;;;;;42.13;23.67;;;2.90;99.90;;;;;;4906485;29;20109;-63
2022/11/22 03:01:09;;;;;;;43.58;22.80;;;3.00;99.90;;;;;;4876408;29;20086;-62
2022/11/22 03:03:35;;;;;;;41.05;23.33;;;3.00;99.90;;;;;;4892680;29;20130;-63
2022/11/22 03:06:02;;;;;;;44.08;23.33;;;3.00;99.90;;;;;;4893883;29;20135;-62
2022/11/22 03:08:28;;;;;;;39.22;22.30;;;3.00;99.90;;;;;;4908683;29;20107;-62
2022/11/22 03:10:57;;;;;;;42.85;22.83;;;3.00;99.90;;;;;;4894015;29;20578;-62
2022/11/22 03:13:23;;;;;;;43.13;22.80;;;3.00;99.90;;;;;;4880603;29;20070;-62
2022/11/22 03:15:49;;;;;;;41.60;23.33;;;3.00;99.90;;;;;;4911343;29;20126;-62
2022/11/22 03:18:15;;;;;;;39.80;22.30;;;3.00;99.90;;;;;;4908417;29;20054;-62
2022/11/22 03:20:41;;;;;;;40.47;22.50;;;3.00;99.90;;;;;;4907260;29;20051;-62
2022/11/22 03:23:07;;;;;;;41.53;22.85;;;3.00;99.90;;;;;;4895728;29;20055;-62
2022/11/22 03:25:36;;;;;;;43.70;23.17;;;3.00;99.90;;;;;;4913958;29;20154;-62
2022/11/22 03:28:02;;;;;;;40.53;22.77;;;3.00;99.90;;;;;;4909301;29;20126;-62
2022/11/22 03:30:28;;;;;;;37.95;21.67;;;3.00;99.90;;;;;;4887322;29;20055;-62
2022/11/22 03:32:54;;;;;;;37.63;21.60;;;3.10;99.90;;;;;;4889316;29;20139;-62
2022/11/22 03:35:20;;;;;;;37.58;21.48;;;3.10;99.90;;;;;;4907488;29;20048;-62
2022/11/22 03:37:46;;;;;;;42.15;23.05;;;3.10;99.90;;;;;;4889974;29;20093;-61
2022/11/22 03:40:12;;;;;;;39.30;21.08;;;3.10;99.90;;;;;;4900918;28;20118;-62
2022/11/22 03:42:38;;;;;;;38.58;21.20;;;3.10;99.90;;;;;;4929501;28;20601;-62
2022/11/22 03:45:05;;;;;;;38.42;21.88;;;3.10;99.90;;;;;;4927619;28;20187;-62
2022/11/22 03:47:30;;;;;;;39.47;21.73;;;3.10;99.90;;;;;;4924304;28;20289;-62
2022/11/22 03:49:56;;;;;;;37.22;21.55;;;3.10;99.90;;;;;;4918728;28;20450;-62
2022/11/22 03:52:22;;;;;;;38.95;22.17;;;3.20;99.90;;;;;;4923103;28;20051;-62
2022/11/22 03:54:48;;;;;;;37.75;20.95;;;3.20;99.90;;;;;;4920405;28;20138;-62
2022/11/22 03:57:15;;;;;;;39.33;21.65;;;3.10;99.90;;;;;;4928988;28;20051;-62
2022/11/22 03:59:41;;;;;;;41.22;22.02;;;3.20;99.90;;;;;;4922289;28;20063;-62
2022/11/22 04:02:07;;;;;;;38.50;21.58;;;3.20;99.90;;;;;;4923285;28;20597;-62
2022/11/22 04:04:33;;;;;;;36.55;20.48;;;3.20;99.90;;;;;;4916102;29;20052;-62
2022/11/22 04:06:59;;;;;;;37.75;21.30;;;3.20;99.90;;;;;;4921379;28;20056;-62
2022/11/22 04:09:24;;;;;;;36.45;20.63;;;3.20;99.90;;;;;;4922391;28;20113;-63
2022/11/22 04:11:50;;;;;;;34.67;20.25;;;3.20;99.90;;;;;;4926262;28;20138;-62
2022/11/22 04:17:00;;;;;;;35.20;20.55;;;3.20;99.90;;;;;;4923360;28;20051;-62
2022/11/22 04:19:26;;;;;;;36.53;19.80;;;3.20;99.90;;;;;;4925189;28;20058;-62
2022/11/22 04:21:52;;;;;;;37.90;20.17;;;3.20;99.90;;;;;;4919350;28;20055;-62
2022/11/22 04:27:02;;;;;;;36.33;20.23;;;3.30;99.90;;;;;;4917747;28;20718;-62
2022/11/22 04:29:28;;;;;;;34.30;20.52;;;3.30;99.90;;;;;;4915063;29;20054;-62
2022/11/22 04:34:38;;;;;;;38.40;20.95;;;3.30;99.90;;;;;;4932928;29;20055;-62
2022/11/22 04:37:04;;;;;;;33.97;19.98;;;3.30;99.90;;;;;;4926396;28;20441;-62
2022/11/22 04:39:30;;;;;;;34.92;20.33;;;3.30;99.90;;;;;;4928009;28;20483;-62
2022/11/22 04:44:42;;;;;;;34.42;19.05;;;3.40;99.90;;;;;;4928376;28;20498;-61
2022/11/22 04:47:57;;;;;;;39.70;21.20;;;3.40;99.90;;;;;;4929265;28;20051;-62
2022/11/22 04:50:03;;;;;;;34.53;19.85;;;3.40;99.90;;;;;;4933475;29;20507;-62
2022/11/22 04:55:13;;;;;;;38.67;20.75;;;3.40;99.90;;;;;;4922653;28;20588;-62
2022/11/22 04:57:39;;;;;;;34.67;19.75;;;3.40;99.90;;;;;;4923473;28;20043;-62
2022/11/22 05:00:06;;;;;;;36.45;19.98;;;3.40;99.90;;;;;;4902482;28;20471;-62
2022/11/22 05:02:31;;;;;;;41.45;20.98;;;3.50;99.90;;;;;;4923413;28;20139;-63
2022/11/22 05:04:57;;;;;;;40.72;20.92;;;3.50;99.90;;;;;;4924791;28;20205;-61
2022/11/22 05:07:23;;;;;;;37.47;20.85;;;3.50;99.90;;;;;;4926076;28;20506;-62
2022/11/22 05:09:48;;;;;;;37.40;19.90;;;3.60;99.90;;;;;;4919683;28;20119;-62
2022/11/22 05:12:14;;;;;;;39.38;20.65;;;3.50;99.90;;;;;;4909823;29;20473;-62
2022/11/22 05:14:40;;;;;;;36.78;21.20;;;3.50;99.90;;;;;;4933388;28;20061;-62
2022/11/22 05:17:06;;;;;;;35.60;19.35;;;3.60;99.90;;;;;;4934642;29;20043;-62
2022/11/22 05:19:32;;;;;;;38.05;20.75;;;3.60;99.90;;;;;;4933945;29;20508;-62
2022/11/22 05:21:58;;;;;;;35.40;20.13;;;3.70;99.90;;;;;;4909158;29;20585;-62
2022/11/22 05:24:24;;;;;;;37.15;20.77;;;3.60;99.90;;;;;;4933854;28;20122;-62
2022/11/22 05:26:49;;;;;;;38.13;20.50;;;3.60;99.90;;;;;;4923237;28;20063;-62
2022/11/22 05:29:15;;;;;;;40.58;20.85;;;3.60;99.90;;;;;;4905915;29;20051;-62
2022/11/22 05:31:42;;;;;;;37.13;20.58;;;3.60;99.90;;;;;;4928517;28;20051;-61
2022/11/22 05:34:08;;;;;;;38.58;21.40;;;3.60;99.90;;;;;;4922610;28;20054;-61
2022/11/22 05:36:34;;;;;;;39.35;20.60;;;3.70;99.90;;;;;;4908684;28;20071;-62
2022/11/22 05:39:00;;;;;;;36.95;20.38;;;3.70;99.90;;;;;;4938023;28;20055;-62
2022/11/22 05:41:26;;;;;;;34.53;20.70;;;3.70;99.90;;;;;;4912885;28;20158;-62
2022/11/22 05:43:56;;;;;;;37.50;19.90;;;3.70;99.90;;;;;;4904466;29;20035;-62
2022/11/22 05:46:27;;;;;;;35.85;19.45;;;3.80;99.90;;;;;;4908975;29;20399;-62
2022/11/22 05:48:55;;;;;;;36.35;21.13;;;3.80;99.90;;;;;;4875714;29;20059;-62
2022/11/22 05:51:23;;;;;;;41.22;20.25;;;3.80;99.90;;;;;;4903683;29;20055;-62
2022/11/22 05:53:49;;;;;;;37.78;21.02;;;3.80;99.90;;;;;;4889372;29;20104;-62
2022/11/22 05:56:20;;;;;;;39.30;20.83;;;3.80;99.90;;;;;;4908097;29;20824;-61
2022/11/22 05:58:46;;;;;;;37.97;20.27;;;3.90;99.90;;;;;;4909961;29;20138;-62
2022/11/22 06:01:17;;;;;;;34.83;20.60;;;3.90;99.90;;;;;;4910886;29;20104;-62
2022/11/22 06:03:43;;;;;;;40.90;22.15;;;3.90;99.90;;;;;;4897476;29;20518;-61
2022/11/22 06:06:10;;;;;;;40.20;20.90;;;3.90;99.90;;;;;;4907583;29;20163;-62
2022/11/22 06:08:39;;;;;;;39.10;20.38;;;3.90;99.90;;;;;;4909600;29;20048;-62
2022/11/22 06:11:07;;;;;;;38.03;20.70;;;4.00;99.90;;;;;;4906641;29;20153;-61
2022/11/22 06:13:38;;;;;;;41.90;20.67;;;4.00;99.90;;;;;;4890243;29;20500;-62
2022/11/22 06:16:05;;;;;;;34.75;20.23;;;4.00;99.90;;;;;;4893261;29;20052;-62
2022/11/22 06:18:32;;;;;;;35.90;20.23;;;4.00;99.90;;;;;;4892850;29;20066;-61
2022/11/22 06:21:25;;;;;;;35.92;21.30;;;4.00;99.90;;;;;;4908438;29;20063;-61
2022/11/22 06:23:53;;;;;;;39.63;21.20;;;4.10;99.90;;;;;;4894726;29;20067;-61
2022/11/22 06:26:20;;;;;;;35.78;19.40;;;4.10;99.90;;;;;;4891973;29;20059;-62
2022/11/22 06:28:47;;;;;;;36.08;20.30;;;4.10;99.90;;;;;;4889613;29;20051;-62
2022/11/22 06:31:16;;;;;;;39.92;20.42;;;4.10;99.90;;;;;;4885566;29;20147;-62
2022/11/22 06:33:43;;;;;;;31.52;19.17;;;4.10;99.90;;;;;;4908432;29;20119;-62
2022/11/22 06:36:20;;;;;;;30.67;19.25;;;4.20;99.90;;;;;;4899314;29;20047;-62
2022/11/22 06:38:47;;;;;;;38.63;20.30;;;4.10;99.90;;;;;;4903455;29;20051;-61
2022/11/22 06:41:15;;;;;;;35.85;20.30;;;4.10;99.90;;;;;;4902946;28;20055;-62
2022/11/22 06:43:43;;;;;;;34.20;19.33;;;4.10;99.90;;;;;;4925143;28;21660;-62
2022/11/22 06:46:15;;;;;;;38.15;20.48;;;4.10;99.90;;;;;;4918385;29;20067;-62
2022/11/22 06:48:42;;;;;;;34.30;20.63;;;4.10;99.90;;;;;;4922659;28;20043;-62
2022/11/22 06:51:23;;;;;;;38.72;19.67;;;4.20;99.90;;;;;;4923010;28;20122;-62
2022/11/22 06:53:50;;;;;;;36.08;20.48;;;4.20;99.90;;;;;;4930530;28;20050;-62
2022/11/22 06:56:24;;;;;;;35.80;20.00;;;4.20;99.90;;;;;;4924030;28;20033;-62
2022/11/22 06:58:51;;;;;;;32.15;19.48;;;4.20;99.90;;;;;;4921428;28;20142;-62
2022/11/22 07:01:22;;;;;;;37.15;20.90;;;4.20;99.90;;;;;;4923871;29;20125;-62
2022/11/22 07:03:49;;;;;;;32.63;20.05;;;4.20;99.90;;;;;;4904996;29;20680;-60
2022/11/22 07:06:17;;;;;;;38.28;19.33;;;4.20;99.90;;;;;;4924988;28;20452;-55
2022/11/22 07:08:44;;;;;;;37.38;20.35;;;4.20;99.90;;;;;;4925732;28;20138;-50
2022/11/22 07:11:19;;;;;;;41.58;20.63;;;4.30;99.90;;;;;;4925643;29;20493;-54
2022/11/22 07:13:46;;;;;;;35.38;19.65;;;4.30;99.90;;;;;;4928902;28;20047;-53
2022/11/22 07:16:14;;;;;;;37.70;19.70;;;4.30;99.90;;;;;;4926055;28;20047;-55
2022/11/22 07:18:40;;;;;;;38.53;19.63;;;4.30;99.90;;;;;;4928628;28;20043;-53
2022/11/22 07:21:19;;;;;;;34.40;18.90;;;4.30;99.90;;;;;;4927741;29;20054;-52
2022/11/22 07:23:47;;;;;;;35.22;19.50;;;4.40;99.90;;;;;;4925419;28;20779;-53
2022/11/22 07:26:14;;;;;;;36.53;19.27;;;4.40;99.90;;;;;;4929672;29;20044;-55
2022/11/22 07:28:40;;;;;;;37.88;19.17;;;4.40;99.90;;;;;;4931358;28;20103;-55
2022/11/22 07:31:08;;;;;;;41.63;21.92;;;4.40;99.90;;;;;;4928040;28;20093;-55
2022/11/22 07:33:34;;;;;;;32.28;18.67;;;4.50;99.90;;;;;;4927304;28;20552;-55
2022/11/22 07:36:09;;;;;;;35.65;19.85;;;4.50;99.90;;;;;;4927105;28;20040;-56
2022/11/22 07:38:35;;;;;;;35.38;18.25;;;4.50;99.90;;;;;;4925457;28;20047;-52
2022/11/22 07:41:01;;;;;;;31.95;17.92;;;4.60;99.90;;;;;;4916833;28;20063;-55
2022/11/22 07:43:27;;;;;;;35.38;17.95;;;4.70;99.90;;;;;;4910027;29;20131;-52
2022/11/22 07:46:00;;;;;;;36.03;17.20;;;4.60;99.90;;;;;;4907719;29;20051;-54
2022/11/22 07:48:26;;;;;;;;;;;4.70;99.90;;;;;;4910666;29;20047;-51
2022/11/22 07:50:52;;;;;;;36.10;17.65;;;4.70;99.90;;;;;;4906941;29;19927;-54
2022/11/22 07:53:18;;;;;;;34.17;17.65;;;4.80;99.90;;;;;;4907991;29;20399;-52
2022/11/22 07:55:43;;;;;;;32.03;16.60;;;4.80;99.90;;;;;;4888298;29;20044;-53
2022/11/22 07:58:09;;;;;;;25.27;14.80;;;4.80;99.90;;;;;;4907578;29;20107;-54
2022/11/22 08:00:35;;;;;;;34.28;16.02;;;4.80;99.90;;;;;;4906439;29;20499;-52
2022/11/22 08:03:01;;;;;;;32.05;15.25;;;4.90;99.90;;;;;;4910611;29;20063;-55
2022/11/22 08:05:27;;;;;;;27.55;15.10;;;4.90;99.90;;;;;;4906334;29;20448;-52
2022/11/22 08:07:53;;;;;;;25.13;14.73;;;4.90;99.90;;;;;;4906240;29;20660;-53
2022/11/22 08:10:20;;;;;;;24.73;13.40;;;5.00;99.90;;;;;;4907199;29;20388;-51
2022/11/22 08:12:46;;;;;;;24.75;13.32;;;5.00;99.90;;;;;;4911716;29;20444;-52
2022/11/22 08:15:14;;;;;;;25.33;12.98;;;5.20;99.90;;;;;;4908655;29;22499;-55
2022/11/22 08:17:40;;;;;;;29.05;13.88;;;5.10;99.90;;;;;;4907470;29;20047;-53
2022/11/22 08:20:09;;;;;;;27.23;13.00;;;5.10;99.90;;;;;;4907222;29;20442;-51
2022/11/22 08:22:39;;;;;;;29.58;12.63;;;5.20;99.90;;;;;;4889969;29;22255;-53
2022/11/22 08:25:11;;;;;;;25.15;11.20;;;5.20;99.90;;;;;;4907861;29;20083;-54
2022/11/22 08:27:38;;;;;;;27.00;10.57;;;5.30;99.90;;;;;;4910501;29;20043;-53
2022/11/22 08:30:05;;;;;;;20.83;9.85;;;5.30;99.90;;;;;;4895380;29;20187;-52
2022/11/22 08:32:30;;;;;;;20.05;8.80;;;5.30;99.90;;;;;;4907777;29;20036;-54
2022/11/22 08:34:56;;;;;;;24.13;9.27;;;5.30;99.90;;;;;;4898881;29;20062;-55
2022/11/22 08:37:22;;;;;;;28.30;9.85;;;5.30;99.90;;;;;;4908388;29;20057;-52
2022/11/22 08:39:47;;;;;;;23.50;8.25;;;5.40;99.90;;;;;;4905665;29;20056;-54
2022/11/22 08:42:13;;;;;;;23.80;7.85;;;5.40;99.90;;;;;;4908252;29;20048;-57
2022/11/22 08:44:39;;;;;;;21.25;8.32;;;5.40;99.90;;;;;;4902846;29;20063;-54
2022/11/22 08:47:05;;;;;;;18.67;7.50;;;5.50;99.90;;;;;;4905625;29;20091;-55
2022/11/22 08:49:30;;;;;;;18.85;7.60;;;5.50;99.90;;;;;;4907642;29;20187;-55
2022/11/22 08:51:56;;;;;;;24.38;7.78;;;5.50;99.90;;;;;;4889202;29;20048;-55
2022/11/22 08:54:22;;;;;;;20.25;7.38;;;5.50;99.90;;;;;;4909426;29;20110;-55
2022/11/22 08:56:48;;;;;;;24.33;7.10;;;5.50;99.90;;;;;;4908269;29;20574;-55
2022/11/22 08:59:13;;;;;;;19.58;6.50;;;5.60;99.90;;;;;;4907316;29;20126;-54
2022/11/22 09:01:39;;;;;;;18.55;7.20;;;5.60;99.90;;;;;;4906502;29;20052;-53
2022/11/22 09:04:05;;;;;;;18.75;6.68;;;5.60;99.90;;;;;;4906837;29;20079;-53
2022/11/22 09:06:31;;;;;;;21.58;6.18;;;5.60;99.90;;;;;;4907057;29;20146;-51
2022/11/22 09:08:57;;;;;;;16.23;6.90;;;5.60;99.90;;;;;;4907356;29;20838;-54
2022/11/22 09:11:22;;;;;;;17.42;5.43;;;5.60;99.90;;;;;;4904271;29;20160;-54
2022/11/22 09:13:48;;;;;;;22.25;6.15;;;5.70;99.90;;;;;;4885438;29;20685;-52
2022/11/22 09:16:17;;;;;;;21.17;5.90;;;5.60;99.90;;;;;;4907237;29;20059;-54
2022/11/22 09:18:44;;;;;;;22.10;5.95;;;5.60;99.90;;;;;;4906747;29;20079;-53
2022/11/22 09:21:16;;;;;;;18.92;5.93;;;5.70;99.90;;;;;;4905376;29;20390;-53
2022/11/22 09:23:43;;;;;;;23.77;5.70;;;5.70;99.90;;;;;;4906219;29;20770;-52
2022/11/22 09:26:11;;;;;;;17.95;6.47;;;5.70;99.90;;;;;;4909037;29;21000;-53
2022/11/22 09:28:37;;;;;;;19.40;5.70;;;5.70;99.90;;;;;;4909475;29;20064;-54
2022/11/22 09:31:18;;;;;;;18.38;5.93;;;5.70;99.90;;;;;;4915903;29;20471;-53
2022/11/22 09:33:45;;;;;;;17.95;5.20;;;5.70;99.90;;;;;;4918281;29;20044;-53
2022/11/22 09:36:16;;;;;;;17.35;5.15;;;5.70;99.90;;;;;;4918493;29;20047;-53
2022/11/22 09:38:42;;;;;;;20.52;5.80;;;5.70;99.90;;;;;;4916341;29;20083;-54
2022/11/22 09:41:23;;;;;;;17.25;5.65;;;5.70;99.90;;;;;;4910220;29;20072;-54
2022/11/22 09:43:55;;;;;;;17.05;5.18;;;5.70;99.90;;;;;;4909079;29;20111;-51
2022/11/22 09:46:53;;;;;;;20.67;5.68;;;5.70;99.90;;;;;;4910717;29;20122;-53
2022/11/22 09:49:42;;;;;;;15.75;5.60;;;5.70;99.90;;;;;;4910850;29;20059;-55
2022/11/22 09:52:21;;;;;;;16.63;6.18;;;5.70;99.90;;;;;;4890016;29;20093;-50
2022/11/22 09:54:52;;;;;;;15.23;5.40;;;5.70;99.90;;;;;;4910244;29;20335;-53
2022/11/22 09:57:24;;;;;;;11.60;5.15;;;5.70;99.90;;;;;;4907229;29;20059;-52
2022/11/22 10:00:17;;;;;;;13.98;4.90;;;5.70;99.90;;;;;;4909239;29;20059;-54
2022/11/22 10:02:59;;;;;;;17.92;6.10;;;5.70;99.90;;;;;;4910544;29;20043;-51
2022/11/22 10:05:31;;;;;;;17.38;4.72;;;5.80;99.90;;;;;;4908608;29;20047;-54
2022/11/22 10:08:35;;;;;;;14.88;4.72;;;5.70;99.90;;;;;;4912173;29;20138;-51
2022/11/22 10:11:08;;;;;;;21.58;4.95;;;5.70;99.90;;;;;;4906906;29;20143;-53
2022/11/22 10:13:50;;;;;;;14.32;4.40;;;5.70;99.90;;;;;;4898709;29;20051;-52
2022/11/22 10:16:26;;;;;;;17.05;4.22;;;5.70;99.90;;;;;;4917454;29;20487;-53
2022/11/22 10:19:07;;;;;;;12.25;3.90;;;5.80;99.90;;;;;;4917982;29;20131;-54
2022/11/22 10:21:33;;;;;;;14.77;4.03;;;5.80;99.90;;;;;;4909481;29;20131;-54
2022/11/22 10:23:59;;;;;;;14.80;3.70;;;5.80;99.90;;;;;;4911802;29;20050;-53
2022/11/22 10:26:33;;;;;;;12.40;3.92;;;5.80;99.90;;;;;;4910978;29;20075;-56
2022/11/22 10:29:22;;;;;;;12.02;3.60;;;5.80;99.90;;;;;;4908145;29;20056;-54
2022/11/22 10:32:17;;;;;;;11.45;3.45;;;5.80;99.90;;;;;;4908571;29;20404;-54
2022/11/22 10:34:46;;;;;;;13.98;3.40;;;5.90;99.90;;;;;;4908184;29;20048;-53
2022/11/22 10:37:14;;;;;;;12.35;3.45;;;5.90;99.90;;;;;;4909511;29;20079;-51
2022/11/22 10:39:48;;;;;;;9.60;3.38;;;5.90;99.90;;;;;;4911469;29;20384;-54
2022/11/22 10:42:35;;;;;;;12.27;3.47;;;5.90;99.90;;;;;;4909256;29;20082;-54
2022/11/22 10:45:00;;;;;;;15.35;3.55;;;6.00;99.90;;;;;;4910964;29;20048;-53
2022/11/22 10:47:46;;;;;;;10.88;3.00;;;5.90;99.90;;;;;;4908473;29;20494;-54
2022/11/22 10:50:21;;;;;;;10.40;3.15;;;6.00;99.90;;;;;;4908997;29;20054;-56
2022/11/22 10:52:57;;;;;;;11.57;3.05;;;6.10;99.90;;;;;;4911547;29;20131;-54
2022/11/22 10:55:50;;;;;;;7.32;3.13;;;6.20;99.90;;;;;;4907219;29;20056;-53
2022/11/22 10:58:17;;;;;;;12.55;3.63;;;6.30;99.90;;;;;;4909011;29;20120;-52
2022/11/22 11:00:55;;;;;;;10.73;3.38;;;6.30;99.90;;;;;;4909026;29;20143;-54
2022/11/22 11:03:35;;;;;;;15.13;3.13;;;6.40;99.90;;;;;;4907272;29;20095;-53
2022/11/22 11:06:16;;;;;;;8.68;3.47;;;6.40;99.90;;;;;;4908330;29;20901;-56
2022/11/22 11:08:54;;;;;;;8.70;3.22;;;6.50;99.90;;;;;;4891069;29;20047;-54
2022/11/22 11:11:23;;;;;;;8.73;3.08;;;6.50;99.90;;;;;;4908090;29;20407;-54
2022/11/22 11:13:59;;;;;;;11.18;2.63;;;6.50;99.90;;;;;;4908243;29;20102;-53
2022/11/22 11:16:29;;;;;;;10.90;3.17;;;6.50;99.90;;;;;;4907102;29;20055;-56
2022/11/22 11:19:04;;;;;;;9.13;2.83;;;6.50;99.90;;;;;;4909791;29;20473;-54
2022/11/22 11:21:30;;;;;;;9.10;3.13;;;6.50;99.90;;;;;;4906482;29;20052;-54
2022/11/22 11:23:56;;;;;;;10.82;2.80;;;6.50;99.90;;;;;;4893852;29;20066;-53
2022/11/22 11:26:24;;;;;;;10.20;2.50;;;6.50;99.90;;;;;;4908765;29;20048;-56
2022/11/22 11:28:50;;;;;;;7.05;2.92;;;6.50;99.90;;;;;;4909583;29;20083;-54
2022/11/22 11:31:20;;;;;;;9.88;2.85;;;6.50;99.90;;;;;;4907296;29;20040;-54
2022/11/22 11:33:46;;;;;;;9.45;3.13;;;6.50;99.90;;;;;;4910703;29;20048;-52
2022/11/22 11:36:23;;;;;;;8.02;2.80;;;6.50;99.90;;;;;;4908267;29;20403;-54
2022/11/22 11:38:54;;;;;;;5.38;2.88;;;6.60;99.90;;;;;;4909025;29;20052;-53
2022/11/22 11:41:24;;;;;;;12.02;2.92;;;6.60;99.90;;;;;;4913498;29;22956;-53
2022/11/22 11:43:52;;;;;;;7.40;2.47;;;6.70;99.90;;;;;;4909382;29;20420;-53
2022/11/22 11:46:21;;;;;;;7.13;3.05;;;6.70;99.90;;;;;;4918452;29;20487;-51
2022/11/22 11:49:08;;;;;;;9.88;2.85;;;6.70;99.90;;;;;;4907942;29;20048;-51
2022/11/22 11:51:40;;;;;;;11.02;2.63;;;6.70;99.90;;;;;;4904015;29;20085;-54
2022/11/22 11:54:19;;;;;;;8.03;2.67;;;6.70;99.90;;;;;;4903775;29;20130;-54
2022/11/22 11:56:50;;;;;;;7.80;2.25;;;6.80;99.90;;;;;;4888814;29;20411;-54
2022/11/22 11:59:19;;;;;;;15.40;2.70;;;6.80;99.90;;;;;;4869346;29;20055;-62
2022/11/22 12:01:53;;;;;;;4.68;2.28;;;6.90;99.90;;;;;;4902534;29;20078;-63
2022/11/22 12:04:28;;;;;;;9.18;2.53;;;6.90;99.90;;;;;;4900835;29;20376;-63
2022/11/22 12:06:57;;;;;;;9.32;2.53;;;7.00;99.90;;;;;;4888424;29;20047;-63
2022/11/22 12:09:32;;;;;;;8.60;3.08;;;7.10;99.90;;;;;;4904554;29;20056;-64
2022/11/22 12:12:16;;;;;;;7.82;2.42;;;7.10;99.90;;;;;;4907952;29;20047;-63
2022/11/22 12:14:50;;;;;;;12.07;2.97;;;7.30;99.90;;;;;;4903615;29;20167;-63
2022/11/22 12:17:25;;;;;;;10.70;2.25;;;7.20;99.90;;;;;;4904140;29;20051;-63
2022/11/22 12:20:05;;;;;;;8.15;2.60;;;7.30;99.90;;;;;;4902633;29;20423;-62
2022/11/22 12:22:59;;;;;;;8.45;2.67;;;7.30;99.90;;;;;;4890158;29;20594;-63
2022/11/22 12:25:32;;;;;;;7.78;2.38;;;7.40;99.90;;;;;;4901734;29;20107;-63
2022/11/22 12:28:01;;;;;;;;;;;7.40;99.90;;;;;;4893701;29;20052;-63
2022/11/22 12:30:28;;;;;;;11.18;2.60;;;7.40;99.90;;;;;;4905698;29;20136;-64
2022/11/22 12:33:01;;;;;;;7.45;2.08;;;7.40;99.90;;;;;;4897061;29;20392;-63
2022/11/22 12:35:36;;;;;;;10.70;2.53;;;7.40;99.90;;;;;;4899657;29;20213;-63
2022/11/22 12:38:22;;;;;;;8.25;2.63;;;7.30;99.90;;;;;;4889683;29;20411;-64
2022/11/22 12:40:55;;;;;;;10.13;2.20;;;7.30;99.90;;;;;;4902437;29;20141;-63
2022/11/22 12:43:28;;;;;;;9.63;2.63;;;7.30;99.90;;;;;;4903310;29;20259;-63
2022/11/22 12:45:59;;;;;;;9.48;2.75;;;7.30;99.90;;;;;;4900632;29;20666;-62
2022/11/22 12:48:51;;;;;;;11.35;3.10;;;7.20;99.90;;;;;;4902952;29;20054;-64
2022/11/22 12:51:33;;;;;;;11.88;2.67;;;7.20;99.90;;;;;;4882581;29;20542;-64
2022/11/22 12:54:02;;;;;;;9.57;2.75;;;7.20;99.90;;;;;;4900553;29;20333;-63
2022/11/22 12:56:34;;;;;;;9.07;2.53;;;7.10;99.90;;;;;;4881498;29;20059;-64
2022/11/22 12:59:14;;;;;;;9.70;2.60;;;7.10;99.90;;;;;;4901288;29;20048;-64
2022/11/22 13:01:40;;;;;;;9.93;2.55;;;7.10;99.90;;;;;;4885748;29;20063;-63
2022/11/22 13:04:09;;;;;;;8.80;2.33;;;7.10;99.90;;;;;;4886216;29;20066;-62
2022/11/22 13:06:55;;;;;;;10.68;2.35;;;7.10;99.90;;;;;;4900957;29;20079;-64
2022/11/22 13:09:37;;;;;;;11.50;2.60;;;7.10;99.90;;;;;;4900667;29;20044;-63